sensor_id;sensor_type;location;lat;lon;timestamp;pressure;altitude;pressure_sealevel;temperature;humidity
56142;BME280;42018;48.588;10.836;2024-02-23T00:01:03;94710.19;;;8.88;79.84
56142;BME280;42018;48.588;10.836;2024-02-23T00:03:49;94712.25;;;9.00;77.57
56142;BME280;42018;48.588;10.836;2024-02-23T00:06:34;94727.22;;;8.82;78.06
56142;BME280;42018;48.588;10.836;2024-02-23T00:09:20;94717.16;;;8.84;77.95
56142;BME280;42018;48.588;10.836;2024-02-23T00:12:05;94730.00;;;8.77;78.34
56142;BME280;42018;48.588;10.836;2024-02-23T00:14:51;94728.41;;;8.67;79.08
56142;BME280;42018;48.588;10.836;2024-02-23T00:17:37;94727.53;;;8.80;78.47
56142;BME280;42018;48.588;10.836;2024-02-23T00:20:23;94748.25;;;8.87;78.69
56142;BME280;42018;48.588;10.836;2024-02-23T00:23:09;94731.56;;;8.78;78.55
56142;BME280;42018;48.588;10.836;2024-02-23T00:25:54;94736.28;;;8.58;77.71
56142;BME280;42018;48.588;10.836;2024-02-23T00:28:40;94738.06;;;8.49;79.41
56142;BME280;42018;48.588;10.836;2024-02-23T00:31:26;94744.44;;;8.48;78.74
56142;BME280;42018;48.588;10.836;2024-02-23T00:34:11;94751.25;;;8.49;79.22
56142;BME280;42018;48.588;10.836;2024-02-23T00:36:58;94759.91;;;8.63;80.60
56142;BME280;42018;48.588;10.836;2024-02-23T00:39:43;94771.50;;;8.54;79.70
56142;BME280;42018;48.588;10.836;2024-02-23T00:42:30;94772.38;;;8.49;79.82
56142;BME280;42018;48.588;10.836;2024-02-23T00:45:15;94785.44;;;8.18;80.00
56142;BME280;42018;48.588;10.836;2024-02-23T00:48:01;94801.28;;;8.18;80.07
56142;BME280;42018;48.588;10.836;2024-02-23T00:50:46;94802.75;;;8.10;79.91
56142;BME280;42018;48.588;10.836;2024-02-23T00:53:32;94801.94;;;8.24;80.05
56142;BME280;42018;48.588;10.836;2024-02-23T00:56:17;94815.75;;;8.07;78.93
56142;BME280;42018;48.588;10.836;2024-02-23T00:59:03;94801.91;;;8.01;78.85
56142;BME280;42018;48.588;10.836;2024-02-23T01:01:48;94804.94;;;7.95;77.86
56142;BME280;42018;48.588;10.836;2024-02-23T01:04:34;94828.50;;;7.91;77.70
56142;BME280;42018;48.588;10.836;2024-02-23T01:07:19;94868.81;;;7.91;75.67
56142;BME280;42018;48.588;10.836;2024-02-23T01:10:05;94913.50;;;7.41;75.29
56142;BME280;42018;48.588;10.836;2024-02-23T01:12:51;94914.31;;;6.71;76.22
56142;BME280;42018;48.588;10.836;2024-02-23T01:15:36;94942.97;;;6.11;81.14
56142;BME280;42018;48.588;10.836;2024-02-23T01:18:21;94937.25;;;6.04;82.81
56142;BME280;42018;48.588;10.836;2024-02-23T01:21:07;94945.00;;;5.95;83.01
56142;BME280;42018;48.588;10.836;2024-02-23T01:23:53;94932.94;;;5.89;83.06
56142;BME280;42018;48.588;10.836;2024-02-23T01:26:38;94949.81;;;6.12;82.36
56142;BME280;42018;48.588;10.836;2024-02-23T01:29:26;94944.47;;;5.93;81.98
56142;BME280;42018;48.588;10.836;2024-02-23T01:32:11;94948.41;;;5.96;81.58
56142;BME280;42018;48.588;10.836;2024-02-23T01:34:57;94955.03;;;6.36;80.95
56142;BME280;42018;48.588;10.836;2024-02-23T01:37:42;94945.00;;;5.95;80.72
56142;BME280;42018;48.588;10.836;2024-02-23T01:40:27;94957.28;;;6.00;80.95
56142;BME280;42018;48.588;10.836;2024-02-23T01:43:14;94958.06;;;6.00;80.53
56142;BME280;42018;48.588;10.836;2024-02-23T01:45:59;94949.03;;;5.83;80.94
56142;BME280;42018;48.588;10.836;2024-02-23T01:48:45;94940.72;;;6.23;80.50
56142;BME280;42018;48.588;10.836;2024-02-23T01:51:31;94954.16;;;5.98;81.13
56142;BME280;42018;48.588;10.836;2024-02-23T01:54:17;94945.88;;;6.10;81.38
56142;BME280;42018;48.588;10.836;2024-02-23T01:57:03;94944.63;;;5.78;82.15
56142;BME280;42018;48.588;10.836;2024-02-23T01:59:49;94944.81;;;6.11;82.25
56142;BME280;42018;48.588;10.836;2024-02-23T02:02:35;94931.63;;;6.16;81.76
56142;BME280;42018;48.588;10.836;2024-02-23T02:05:20;94937.44;;;6.13;82.75
56142;BME280;42018;48.588;10.836;2024-02-23T02:08:06;94945.31;;;6.37;82.05
56142;BME280;42018;48.588;10.836;2024-02-23T02:10:52;94945.03;;;6.57;80.62
56142;BME280;42018;48.588;10.836;2024-02-23T02:13:38;94934.63;;;6.28;80.82
56142;BME280;42018;48.588;10.836;2024-02-23T02:16:23;94944.63;;;5.78;81.82
56142;BME280;42018;48.588;10.836;2024-02-23T02:19:09;94953.88;;;5.70;83.05
56142;BME280;42018;48.588;10.836;2024-02-23T02:21:55;94963.88;;;5.97;81.90
56142;BME280;42018;48.588;10.836;2024-02-23T02:24:41;94970.03;;;6.12;81.55
56142;BME280;42018;48.588;10.836;2024-02-23T02:27:28;94980.22;;;6.18;81.74
56142;BME280;42018;48.588;10.836;2024-02-23T02:30:14;94986.88;;;6.35;81.48
56142;BME280;42018;48.588;10.836;2024-02-23T02:32:59;94991.69;;;6.52;80.36
56142;BME280;42018;48.588;10.836;2024-02-23T02:35:45;94982.59;;;6.20;80.52
56142;BME280;42018;48.588;10.836;2024-02-23T02:38:31;94985.41;;;6.47;80.91
56142;BME280;42018;48.588;10.836;2024-02-23T02:41:19;94978.44;;;6.38;79.82
56142;BME280;42018;48.588;10.836;2024-02-23T02:44:04;94968.78;;;6.52;79.69
56142;BME280;42018;48.588;10.836;2024-02-23T02:46:50;94968.00;;;6.70;78.68
56142;BME280;42018;48.588;10.836;2024-02-23T02:49:35;94983.00;;;6.51;78.98
56142;BME280;42018;48.588;10.836;2024-02-23T02:52:21;94975.81;;;6.57;78.59
56142;BME280;42018;48.588;10.836;2024-02-23T02:55:08;94985.19;;;6.44;78.25
56142;BME280;42018;48.588;10.836;2024-02-23T02:57:54;94979.09;;;6.67;77.83
56142;BME280;42018;48.588;10.836;2024-02-23T03:00:40;94976.53;;;6.19;78.57
56142;BME280;42018;48.588;10.836;2024-02-23T03:03:25;94974.03;;;6.33;78.51
56142;BME280;42018;48.588;10.836;2024-02-23T03:06:11;94972.06;;;5.96;78.98
56142;BME280;42018;48.588;10.836;2024-02-23T03:08:56;94974.50;;;6.11;78.35
56142;BME280;42018;48.588;10.836;2024-02-23T03:11:41;94976.31;;;6.16;79.20
56142;BME280;42018;48.588;10.836;2024-02-23T03:14:27;94977.75;;;6.27;77.87
56142;BME280;42018;48.588;10.836;2024-02-23T03:17:12;94966.25;;;5.99;78.67
56142;BME280;42018;48.588;10.836;2024-02-23T03:19:58;94965.16;;;6.00;77.25
56142;BME280;42018;48.588;10.836;2024-02-23T03:22:44;94973.63;;;5.97;77.86
56142;BME280;42018;48.588;10.836;2024-02-23T03:25:29;94971.63;;;6.13;77.63
56142;BME280;42018;48.588;10.836;2024-02-23T03:28:15;94964.50;;;6.37;77.25
56142;BME280;42018;48.588;10.836;2024-02-23T03:31:01;94954.69;;;6.43;76.39
56142;BME280;42018;48.588;10.836;2024-02-23T03:33:46;94954.69;;;6.43;76.36
56142;BME280;42018;48.588;10.836;2024-02-23T03:36:31;94953.91;;;6.61;75.82
56142;BME280;42018;48.588;10.836;2024-02-23T03:39:17;94956.06;;;6.59;75.24
56142;BME280;42018;48.588;10.836;2024-02-23T03:42:03;94954.78;;;6.57;75.36
56142;BME280;42018;48.588;10.836;2024-02-23T03:44:48;94963.09;;;6.45;75.37
56142;BME280;42018;48.588;10.836;2024-02-23T03:47:34;94953.69;;;6.39;76.13
56142;BME280;42018;48.588;10.836;2024-02-23T03:50:19;94965.94;;;6.24;76.54
56142;BME280;42018;48.588;10.836;2024-02-23T03:53:05;94967.47;;;6.31;77.36
56142;BME280;42018;48.588;10.836;2024-02-23T03:55:50;94967.81;;;6.24;77.27
56142;BME280;42018;48.588;10.836;2024-02-23T03:58:36;94966.50;;;6.21;78.17
56142;BME280;42018;48.588;10.836;2024-02-23T04:01:21;94971.41;;;6.09;77.30
56142;BME280;42018;48.588;10.836;2024-02-23T04:04:07;94970.53;;;6.14;77.99
56142;BME280;42018;48.588;10.836;2024-02-23T04:06:52;94971.44;;;6.04;78.34
56142;BME280;42018;48.588;10.836;2024-02-23T04:09:38;94966.03;;;5.66;80.60
56142;BME280;42018;48.588;10.836;2024-02-23T04:12:24;94974.53;;;5.82;79.45
56142;BME280;42018;48.588;10.836;2024-02-23T04:15:09;94982.28;;;5.68;80.75
56142;BME280;42018;48.588;10.836;2024-02-23T04:17:55;94985.59;;;5.79;80.18
56142;BME280;42018;48.588;10.836;2024-02-23T04:20:41;94980.41;;;5.74;80.24
56142;BME280;42018;48.588;10.836;2024-02-23T04:23:26;94989.75;;;5.56;81.07
56142;BME280;42018;48.588;10.836;2024-02-23T04:26:12;94981.44;;;5.44;80.92
56142;BME280;42018;48.588;10.836;2024-02-23T04:28:58;94983.75;;;5.50;81.58
56142;BME280;42018;48.588;10.836;2024-02-23T04:31:43;94993.78;;;5.43;80.94
56142;BME280;42018;48.588;10.836;2024-02-23T04:34:29;94999.78;;;5.49;81.86
56142;BME280;42018;48.588;10.836;2024-02-23T04:37:14;95003.81;;;5.70;81.46
56142;BME280;42018;48.588;10.836;2024-02-23T04:40:00;94994.69;;;5.92;80.58
56142;BME280;42018;48.588;10.836;2024-02-23T04:42:45;95008.38;;;5.89;80.47
56142;BME280;42018;48.588;10.836;2024-02-23T04:45:32;94999.69;;;5.88;80.26
56142;BME280;42018;48.588;10.836;2024-02-23T04:48:18;95000.53;;;5.84;80.37
56142;BME280;42018;48.588;10.836;2024-02-23T04:51:03;94999.50;;;5.80;80.14
56142;BME280;42018;48.588;10.836;2024-02-23T04:53:49;94989.44;;;5.63;79.99
56142;BME280;42018;48.588;10.836;2024-02-23T04:56:35;94997.69;;;5.80;79.73
56142;BME280;42018;48.588;10.836;2024-02-23T04:59:20;94988.91;;;5.61;79.57
56142;BME280;42018;48.588;10.836;2024-02-23T05:02:06;94978.38;;;5.90;79.16
56142;BME280;42018;48.588;10.836;2024-02-23T05:04:52;94985.13;;;6.01;78.97
56142;BME280;42018;48.588;10.836;2024-02-23T05:07:38;94979.56;;;5.79;79.62
56142;BME280;42018;48.588;10.836;2024-02-23T05:10:23;94974.03;;;6.09;78.60
56142;BME280;42018;48.588;10.836;2024-02-23T05:13:09;94972.56;;;5.98;78.75
56142;BME280;42018;48.588;10.836;2024-02-23T05:15:56;94969.81;;;6.08;78.12
56142;BME280;42018;48.588;10.836;2024-02-23T05:18:43;94971.31;;;6.14;78.25
56142;BME280;42018;48.588;10.836;2024-02-23T05:21:28;94975.34;;;6.07;78.05
56142;BME280;42018;48.588;10.836;2024-02-23T05:24:14;94978.94;;;5.87;79.82
56142;BME280;42018;48.588;10.836;2024-02-23T05:27:00;94981.78;;;5.95;79.92
56142;BME280;42018;48.588;10.836;2024-02-23T05:29:49;94989.03;;;6.09;78.85
56142;BME280;42018;48.588;10.836;2024-02-23T05:32:34;94990.06;;;6.08;78.99
56142;BME280;42018;48.588;10.836;2024-02-23T05:35:20;94991.47;;;6.48;77.37
56142;BME280;42018;48.588;10.836;2024-02-23T05:38:05;94996.00;;;6.61;76.40
56142;BME280;42018;48.588;10.836;2024-02-23T05:40:51;94992.44;;;6.76;75.71
56142;BME280;42018;48.588;10.836;2024-02-23T05:43:36;94997.81;;;6.85;74.67
56142;BME280;42018;48.588;10.836;2024-02-23T05:46:22;95013.16;;;6.59;75.77
56142;BME280;42018;48.588;10.836;2024-02-23T05:49:07;95021.28;;;6.62;75.34
56142;BME280;42018;48.588;10.836;2024-02-23T05:51:54;95020.00;;;6.36;76.49
56142;BME280;42018;48.588;10.836;2024-02-23T05:54:40;95023.94;;;6.38;75.99
56142;BME280;42018;48.588;10.836;2024-02-23T05:57:26;95015.38;;;6.28;76.01
56142;BME280;42018;48.588;10.836;2024-02-23T06:00:13;95018.69;;;6.57;75.34
56142;BME280;42018;48.588;10.836;2024-02-23T06:03:00;95027.78;;;6.46;75.27
56142;BME280;42018;48.588;10.836;2024-02-23T06:05:45;95036.50;;;6.65;74.75
56142;BME280;42018;48.588;10.836;2024-02-23T06:08:31;95038.19;;;6.56;75.58
56142;BME280;42018;48.588;10.836;2024-02-23T06:11:16;95037.53;;;6.45;75.07
56142;BME280;42018;48.588;10.836;2024-02-23T06:14:02;95020.72;;;6.41;74.92
56142;BME280;42018;48.588;10.836;2024-02-23T06:16:48;95023.19;;;6.33;74.79
56142;BME280;42018;48.588;10.836;2024-02-23T06:19:34;95035.44;;;6.18;75.34
56142;BME280;42018;48.588;10.836;2024-02-23T06:22:19;95051.53;;;6.12;75.61
56142;BME280;42018;48.588;10.836;2024-02-23T06:25:09;95051.03;;;5.81;77.04
56142;BME280;42018;48.588;10.836;2024-02-23T06:27:54;95059.34;;;5.59;78.07
56142;BME280;42018;48.588;10.836;2024-02-23T06:30:40;95069.22;;;5.72;77.57
56142;BME280;42018;48.588;10.836;2024-02-23T06:33:25;95066.84;;;6.05;76.88
56142;BME280;42018;48.588;10.836;2024-02-23T06:36:11;95062.78;;;5.88;77.02
56142;BME280;42018;48.588;10.836;2024-02-23T06:38:56;95055.69;;;5.89;77.12
56142;BME280;42018;48.588;10.836;2024-02-23T06:41:42;95052.28;;;6.17;76.04
56142;BME280;42018;48.588;10.836;2024-02-23T06:44:27;95047.84;;;5.84;76.35
56142;BME280;42018;48.588;10.836;2024-02-23T06:47:13;95036.16;;;6.00;75.87
56142;BME280;42018;48.588;10.836;2024-02-23T06:50:00;95021.94;;;6.01;76.13
56142;BME280;42018;48.588;10.836;2024-02-23T06:52:45;95024.38;;;6.21;75.04
56142;BME280;42018;48.588;10.836;2024-02-23T06:55:36;95022.47;;;6.27;75.06
56142;BME280;42018;48.588;10.836;2024-02-23T06:58:22;95029.22;;;6.09;75.45
56142;BME280;42018;48.588;10.836;2024-02-23T07:01:07;95047.81;;;5.55;78.00
56142;BME280;42018;48.588;10.836;2024-02-23T07:03:56;95045.94;;;5.60;78.91
56142;BME280;42018;48.588;10.836;2024-02-23T07:06:42;95053.22;;;5.68;78.46
56142;BME280;42018;48.588;10.836;2024-02-23T07:09:28;95057.66;;;5.39;79.54
56142;BME280;42018;48.588;10.836;2024-02-23T07:12:13;95066.19;;;5.55;78.80
56142;BME280;42018;48.588;10.836;2024-02-23T07:14:59;95074.53;;;5.67;78.39
56142;BME280;42018;48.588;10.836;2024-02-23T07:17:45;95082.66;;;5.65;78.30
56142;BME280;42018;48.588;10.836;2024-02-23T07:20:30;95089.44;;;5.37;78.80
56142;BME280;42018;48.588;10.836;2024-02-23T07:23:16;95089.44;;;5.76;77.72
56142;BME280;42018;48.588;10.836;2024-02-23T07:26:02;95089.03;;;5.93;77.55
56142;BME280;42018;48.588;10.836;2024-02-23T07:28:48;95082.41;;;6.01;77.21
56142;BME280;42018;48.588;10.836;2024-02-23T07:31:34;95089.56;;;6.24;75.84
56142;BME280;42018;48.588;10.836;2024-02-23T07:34:20;95076.00;;;6.36;75.03
56142;BME280;42018;48.588;10.836;2024-02-23T07:37:06;95084.38;;;6.14;76.09
56142;BME280;42018;48.588;10.836;2024-02-23T07:39:51;95083.69;;;6.33;75.77
56142;BME280;42018;48.588;10.836;2024-02-23T07:42:37;95080.47;;;6.41;75.09
56142;BME280;42018;48.588;10.836;2024-02-23T07:45:22;95084.00;;;6.55;75.17
56142;BME280;42018;48.588;10.836;2024-02-23T07:48:08;95063.66;;;6.61;74.75
56142;BME280;42018;48.588;10.836;2024-02-23T07:50:54;95063.50;;;6.76;74.69
56142;BME280;42018;48.588;10.836;2024-02-23T07:53:40;95056.69;;;6.94;73.84
56142;BME280;42018;48.588;10.836;2024-02-23T07:56:25;95062.88;;;7.03;73.64
56142;BME280;42018;48.588;10.836;2024-02-23T07:59:11;95074.09;;;6.90;73.57
56142;BME280;42018;48.588;10.836;2024-02-23T08:01:57;95075.59;;;6.96;73.42
56142;BME280;42018;48.588;10.836;2024-02-23T08:04:42;95059.38;;;7.08;73.54
56142;BME280;42018;48.588;10.836;2024-02-23T08:07:28;95062.44;;;6.96;74.30
56142;BME280;42018;48.588;10.836;2024-02-23T08:10:16;95064.84;;;7.11;73.08
56142;BME280;42018;48.588;10.836;2024-02-23T08:13:01;95058.88;;;7.25;72.98
56142;BME280;42018;48.588;10.836;2024-02-23T08:15:47;95073.13;;;7.24;73.10
56142;BME280;42018;48.588;10.836;2024-02-23T08:18:32;95079.09;;;7.10;73.38
56142;BME280;42018;48.588;10.836;2024-02-23T08:21:18;95090.91;;;6.94;73.51
56142;BME280;42018;48.588;10.836;2024-02-23T08:24:04;95095.44;;;6.64;75.51
56142;BME280;42018;48.588;10.836;2024-02-23T08:26:50;95096.00;;;6.61;76.45
56142;BME280;42018;48.588;10.836;2024-02-23T08:29:38;95091.16;;;6.74;76.27
56142;BME280;42018;48.588;10.836;2024-02-23T08:32:23;95095.84;;;6.77;76.82
56142;BME280;42018;48.588;10.836;2024-02-23T08:35:09;95093.81;;;6.68;77.32
56142;BME280;42018;48.588;10.836;2024-02-23T08:37:55;95097.75;;;6.95;76.82
56142;BME280;42018;48.588;10.836;2024-02-23T08:40:40;95100.38;;;6.95;76.40
56142;BME280;42018;48.588;10.836;2024-02-23T08:43:27;95099.81;;;6.98;76.51
56142;BME280;42018;48.588;10.836;2024-02-23T08:46:12;95098.81;;;6.94;75.25
56142;BME280;42018;48.588;10.836;2024-02-23T08:48:58;95117.34;;;6.60;77.01
56142;BME280;42018;48.588;10.836;2024-02-23T08:51:43;95114.97;;;6.82;76.27
56142;BME280;42018;48.588;10.836;2024-02-23T08:54:29;95117.97;;;7.18;74.81
56142;BME280;42018;48.588;10.836;2024-02-23T08:57:15;95113.44;;;6.81;74.81
56142;BME280;42018;48.588;10.836;2024-02-23T09:00:05;95105.09;;;7.17;73.73
56142;BME280;42018;48.588;10.836;2024-02-23T09:02:51;95102.53;;;7.12;73.33
56142;BME280;42018;48.588;10.836;2024-02-23T09:05:37;95112.75;;;6.94;73.90
56142;BME280;42018;48.588;10.836;2024-02-23T09:08:22;95111.81;;;7.04;73.83
56142;BME280;42018;48.588;10.836;2024-02-23T09:11:08;95119.75;;;6.80;74.29
56142;BME280;42018;48.588;10.836;2024-02-23T09:13:53;95116.06;;;6.81;74.49
56142;BME280;42018;48.588;10.836;2024-02-23T09:16:39;95122.69;;;6.55;75.28
56142;BME280;42018;48.588;10.836;2024-02-23T09:19:24;95126.84;;;6.32;75.09
56142;BME280;42018;48.588;10.836;2024-02-23T09:22:10;95129.88;;;6.44;74.82
56142;BME280;42018;48.588;10.836;2024-02-23T09:24:55;95123.00;;;6.96;73.31
56142;BME280;42018;48.588;10.836;2024-02-23T09:27:41;95121.69;;;6.45;73.70
56142;BME280;42018;48.588;10.836;2024-02-23T09:30:30;95106.66;;;6.75;73.02
56142;BME280;42018;48.588;10.836;2024-02-23T09:33:15;95116.28;;;6.85;71.95
56142;BME280;42018;48.588;10.836;2024-02-23T09:36:01;95135.53;;;6.56;72.27
56142;BME280;42018;48.588;10.836;2024-02-23T09:38:47;95152.06;;;6.33;74.29
56142;BME280;42018;48.588;10.836;2024-02-23T09:41:34;95145.75;;;6.63;74.60
56142;BME280;42018;48.588;10.836;2024-02-23T09:44:20;95148.88;;;6.36;73.91
56142;BME280;42018;48.588;10.836;2024-02-23T09:47:08;95140.22;;;6.35;75.15
56142;BME280;42018;48.588;10.836;2024-02-23T09:49:55;95148.41;;;6.29;74.09
56142;BME280;42018;48.588;10.836;2024-02-23T09:52:41;95143.81;;;6.44;73.71
56142;BME280;42018;48.588;10.836;2024-02-23T09:55:27;95136.22;;;6.67;73.06
56142;BME280;42018;48.588;10.836;2024-02-23T09:58:13;95137.09;;;6.57;73.92
56142;BME280;42018;48.588;10.836;2024-02-23T10:01:03;95145.00;;;6.57;72.59
56142;BME280;42018;48.588;10.836;2024-02-23T10:03:48;95149.75;;;6.55;73.42
56142;BME280;42018;48.588;10.836;2024-02-23T10:06:34;95150.72;;;6.64;74.04
56142;BME280;42018;48.588;10.836;2024-02-23T10:09:19;95145.75;;;6.63;73.54
56142;BME280;42018;48.588;10.836;2024-02-23T10:12:07;95150.28;;;6.81;72.73
56142;BME280;42018;48.588;10.836;2024-02-23T10:14:53;95151.06;;;6.82;71.90
56142;BME280;42018;48.588;10.836;2024-02-23T10:17:38;95151.16;;;6.71;71.53
56142;BME280;42018;48.588;10.836;2024-02-23T10:20:26;95153.50;;;6.97;70.46
56142;BME280;42018;48.588;10.836;2024-02-23T10:23:11;95154.22;;;6.84;71.36
56142;BME280;42018;48.588;10.836;2024-02-23T10:25:57;95136.97;;;6.72;71.60
56142;BME280;42018;48.588;10.836;2024-02-23T10:28:42;95144.63;;;6.69;71.22
56142;BME280;42018;48.588;10.836;2024-02-23T10:31:28;95148.84;;;6.41;70.97
56142;BME280;42018;48.588;10.836;2024-02-23T10:34:14;95144.84;;;6.72;70.87
56142;BME280;42018;48.588;10.836;2024-02-23T10:37:00;95148.63;;;6.61;70.78
56142;BME280;42018;48.588;10.836;2024-02-23T10:39:46;95139.91;;;6.90;70.32
56142;BME280;42018;48.588;10.836;2024-02-23T10:42:34;95134.97;;;7.07;69.78
56142;BME280;42018;48.588;10.836;2024-02-23T10:45:22;95129.69;;;7.07;69.75
56142;BME280;42018;48.588;10.836;2024-02-23T10:48:09;95128.28;;;7.15;68.88
56142;BME280;42018;48.588;10.836;2024-02-23T10:50:56;95135.78;;;7.27;68.19
56142;BME280;42018;48.588;10.836;2024-02-23T10:53:45;95147.44;;;7.20;68.98
56142;BME280;42018;48.588;10.836;2024-02-23T10:56:31;95149.88;;;7.36;69.05
56142;BME280;42018;48.588;10.836;2024-02-23T10:59:17;95145.44;;;7.36;68.42
56142;BME280;42018;48.588;10.836;2024-02-23T11:02:08;95138.94;;;7.48;68.29
56142;BME280;42018;48.588;10.836;2024-02-23T11:04:55;95129.97;;;7.30;67.65
56142;BME280;42018;48.588;10.836;2024-02-23T11:07:41;95130.53;;;7.27;67.28
56142;BME280;42018;48.588;10.836;2024-02-23T11:10:27;95137.66;;;7.02;66.20
56142;BME280;42018;48.588;10.836;2024-02-23T11:13:13;95131.22;;;7.13;67.01
56142;BME280;42018;48.588;10.836;2024-02-23T11:16:07;95135.03;;;7.02;66.10
56142;BME280;42018;48.588;10.836;2024-02-23T11:19:06;95136.56;;;7.27;67.08
56142;BME280;42018;48.588;10.836;2024-02-23T11:21:58;95139.00;;;7.24;67.18
56142;BME280;42018;48.588;10.836;2024-02-23T11:24:44;95132.53;;;6.92;67.37
56142;BME280;42018;48.588;10.836;2024-02-23T11:27:31;95125.97;;;6.89;65.55
56142;BME280;42018;48.588;10.836;2024-02-23T11:30:17;95126.38;;;7.20;65.75
56142;BME280;42018;48.588;10.836;2024-02-23T11:33:03;95133.28;;;7.16;65.41
56142;BME280;42018;48.588;10.836;2024-02-23T11:35:48;95131.53;;;7.31;65.13
56142;BME280;42018;48.588;10.836;2024-02-23T11:38:34;95126.69;;;7.38;64.55
56142;BME280;42018;48.588;10.836;2024-02-23T11:41:21;95131.78;;;7.10;64.48
56142;BME280;42018;48.588;10.836;2024-02-23T11:44:08;95125.63;;;6.72;64.48
56142;BME280;42018;48.588;10.836;2024-02-23T11:46:53;95125.59;;;7.01;64.17
56142;BME280;42018;48.588;10.836;2024-02-23T11:49:38;95126.38;;;7.20;63.41
56142;BME280;42018;48.588;10.836;2024-02-23T11:52:24;95127.31;;;6.87;63.45
56142;BME280;42018;48.588;10.836;2024-02-23T11:55:11;95123.00;;;7.15;64.02
56142;BME280;42018;48.588;10.836;2024-02-23T11:57:56;95114.16;;;7.30;63.58
56142;BME280;42018;48.588;10.836;2024-02-23T12:00:42;95115.84;;;7.20;61.84
56142;BME280;42018;48.588;10.836;2024-02-23T12:03:28;95116.56;;;7.26;60.41
56142;BME280;42018;48.588;10.836;2024-02-23T12:06:15;95120.56;;;7.24;61.44
56142;BME280;42018;48.588;10.836;2024-02-23T12:09:03;95119.78;;;7.23;61.61
56142;BME280;42018;48.588;10.836;2024-02-23T12:11:50;95121.75;;;7.31;62.45
56142;BME280;42018;48.588;10.836;2024-02-23T12:14:36;95109.53;;;7.40;62.10
56142;BME280;42018;48.588;10.836;2024-02-23T12:17:22;95113.59;;;7.33;62.20
56142;BME280;42018;48.588;10.836;2024-02-23T12:20:08;95099.34;;;7.53;61.43
56142;BME280;42018;48.588;10.836;2024-02-23T12:22:56;95099.22;;;7.44;61.56
56142;BME280;42018;48.588;10.836;2024-02-23T12:25:53;95089.94;;;7.28;61.87
56142;BME280;42018;48.588;10.836;2024-02-23T12:28:40;95089.66;;;7.48;62.35
56142;BME280;42018;48.588;10.836;2024-02-23T12:31:26;95096.06;;;7.42;61.82
56142;BME280;42018;48.588;10.836;2024-02-23T12:34:12;95091.56;;;7.42;62.27
56142;BME280;42018;48.588;10.836;2024-02-23T12:36:58;95100.59;;;7.17;62.26
56142;BME280;42018;48.588;10.836;2024-02-23T12:39:44;95107.81;;;7.12;62.06
56142;BME280;42018;48.588;10.836;2024-02-23T12:42:30;95110.56;;;7.20;64.32
56142;BME280;42018;48.588;10.836;2024-02-23T12:45:16;95114.97;;;7.06;64.00
56142;BME280;42018;48.588;10.836;2024-02-23T12:48:01;95120.41;;;7.34;62.81
56142;BME280;42018;48.588;10.836;2024-02-23T12:50:47;95118.91;;;7.28;62.36
56142;BME280;42018;48.588;10.836;2024-02-23T12:53:36;95125.03;;;7.23;62.70
56142;BME280;42018;48.588;10.836;2024-02-23T12:56:22;95117.13;;;7.42;63.40
56142;BME280;42018;48.588;10.836;2024-02-23T12:59:10;95118.50;;;7.58;64.18
56142;BME280;42018;48.588;10.836;2024-02-23T13:01:58;95127.53;;;7.33;62.53
56142;BME280;42018;48.588;10.836;2024-02-23T13:04:43;95118.69;;;7.24;63.75
56142;BME280;42018;48.588;10.836;2024-02-23T13:07:33;95129.03;;;7.39;62.91
56142;BME280;42018;48.588;10.836;2024-02-23T13:10:19;95115.84;;;7.39;63.81
56142;BME280;42018;48.588;10.836;2024-02-23T13:13:05;95123.41;;;7.46;63.41
56142;BME280;42018;48.588;10.836;2024-02-23T13:15:52;95101.53;;;7.64;63.13
56142;BME280;42018;48.588;10.836;2024-02-23T13:18:38;95095.13;;;7.71;62.67
56142;BME280;42018;48.588;10.836;2024-02-23T13:21:23;95096.03;;;7.61;61.13
56142;BME280;42018;48.588;10.836;2024-02-23T13:24:09;95092.69;;;7.74;62.34
56142;BME280;42018;48.588;10.836;2024-02-23T13:26:55;95091.50;;;7.66;63.18
56142;BME280;42018;48.588;10.836;2024-02-23T13:29:40;95077.22;;;7.67;62.20
56142;BME280;42018;48.588;10.836;2024-02-23T13:32:26;95078.72;;;7.74;62.47
56142;BME280;42018;48.588;10.836;2024-02-23T13:35:12;95081.88;;;7.76;62.74
56142;BME280;42018;48.588;10.836;2024-02-23T13:37:59;95082.94;;;7.75;62.47
56142;BME280;42018;48.588;10.836;2024-02-23T13:40:45;95084.72;;;7.60;63.69
56142;BME280;42018;48.588;10.836;2024-02-23T13:43:30;95077.34;;;7.95;63.11
56142;BME280;42018;48.588;10.836;2024-02-23T13:46:16;95070.53;;;8.08;62.74
56142;BME280;42018;48.588;10.836;2024-02-23T13:49:03;95078.47;;;7.89;63.36
56142;BME280;42018;48.588;10.836;2024-02-23T13:51:49;95057.53;;;7.98;63.15
56142;BME280;42018;48.588;10.836;2024-02-23T13:54:35;95038.97;;;7.70;63.85
56142;BME280;42018;48.588;10.836;2024-02-23T13:57:20;95035.34;;;7.99;62.95
56142;BME280;42018;48.588;10.836;2024-02-23T14:00:06;95037.69;;;8.00;62.69
56142;BME280;42018;48.588;10.836;2024-02-23T14:02:58;95027.06;;;8.05;62.81
56142;BME280;42018;48.588;10.836;2024-02-23T14:05:44;95026.84;;;8.02;62.76
56142;BME280;42018;48.588;10.836;2024-02-23T14:08:30;95009.28;;;7.97;62.27
56142;BME280;42018;48.588;10.836;2024-02-23T14:11:16;95030.16;;;8.07;62.53
56142;BME280;42018;48.588;10.836;2024-02-23T14:14:04;95057.41;;;8.03;62.34
56142;BME280;42018;48.588;10.836;2024-02-23T14:16:49;95060.00;;;8.08;63.59
56142;BME280;42018;48.588;10.836;2024-02-23T14:19:35;95047.00;;;8.11;63.07
56142;BME280;42018;48.588;10.836;2024-02-23T14:22:21;95059.88;;;8.13;63.36
56142;BME280;42018;48.588;10.836;2024-02-23T14:25:07;95071.59;;;8.07;63.32
56142;BME280;42018;48.588;10.836;2024-02-23T14:27:53;95077.28;;;8.14;63.71
56142;BME280;42018;48.588;10.836;2024-02-23T14:30:40;95077.47;;;8.18;63.69
56142;BME280;42018;48.588;10.836;2024-02-23T14:33:28;95071.91;;;8.05;63.81
56142;BME280;42018;48.588;10.836;2024-02-23T14:36:14;95051.56;;;8.06;64.97
56142;BME280;42018;48.588;10.836;2024-02-23T14:39:00;95028.91;;;8.05;64.29